This is the latest recevied weather packets stored in our database for station/object LRBS. If no packets are shown the sender has not sent any weather packets the latest 10 day(s).
| Time | Temp. | Humidity | Pressure | Rain* | Wind** | Luminosity | Snow |
|---|---|---|---|---|---|---|---|
| 1777879094 | 16.11° C | 45% | 1016 hPa | - | - | - | - |
| 1777878195 | 16.11° C | 45% | 1016 hPa | - | - | - | - |
| 1777877294 | 13.89° C | 51% | 1016 hPa | - | - | - | - |
| 1777876395 | 13.89° C | 51% | 1016 hPa | - | - | - | - |
| 1777875495 | 12.22° C | 58% | 1016 hPa | - | - | - | - |
| 1777874595 | 12.22° C | 58% | 1016 hPa | - | - | - | - |
| 1777873695 | 11.11° C | 62% | 1017 hPa | - | - | - | - |
| 1777872796 | 11.11° C | 62% | 1017 hPa | - | - | - | - |
| 1777871895 | 8.89° C | 66% | 1017 hPa | - | - | - | - |
| 1777871004 | 8.89° C | 66% | 1017 hPa | - | - | - | - |
| 1777870095 | 7.78° C | 66% | 1017 hPa | - | - | - | - |
| 1777869194 | 7.78° C | 66% | 1017 hPa | - | - | - | - |
| 1777868294 | 7.22° C | 71% | 1017 hPa | - | - | - | - |
| 1777867394 | 7.22° C | 71% | 1017 hPa | - | - | - | - |
| 1777866495 | 6.11° C | 76% | 1017 hPa | - | - | - | - |
| 1777865594 | 6.11° C | 76% | 1017 hPa | - | - | - | - |
| 1777864694 | 6.11° C | 76% | 1017 hPa | - | - | - | - |
| 1777863870 | 6.11° C | 76% | - | - | - | - | - |
| 1777862895 | 6.11° C | 71% | 1017 hPa | - | - | - | - |
| 1777861994 | 6.11° C | 71% | 1017 hPa | - | - | - | - |
| 1777861094 | 7.22° C | 71% | 1017 hPa | - | - | - | - |
| 1777860194 | 7.22° C | 71% | 1017 hPa | - | - | - | - |
| 1777859294 | 7.22° C | 71% | 1018 hPa | - | - | - | - |
| 1777858399 | 7.22° C | 71% | 1018 hPa | - | - | - | - |
| 1777857570 | 6.11° C | 76% | 1018 hPa | - | - | - | - |
* Rain since midnight (hover to see other rain measurements)
** Current wind speed in m/s (hover to see current wind gust speed)